sensor_id;sensor_type;location;lat;lon;timestamp;temperature;humidity
7307;DHT22;3694;48.732;9.248;2022-08-05T00:02:21;22.10;92.30
7307;DHT22;3694;48.732;9.248;2022-08-05T00:04:46;22.10;92.10
7307;DHT22;3694;48.732;9.248;2022-08-05T00:07:12;22.10;92.10
7307;DHT22;3694;48.732;9.248;2022-08-05T00:09:37;22.10;92.00
7307;DHT22;3694;48.732;9.248;2022-08-05T00:12:03;22.10;91.90
7307;DHT22;3694;48.732;9.248;2022-08-05T00:14:29;22.10;91.70
7307;DHT22;3694;48.732;9.248;2022-08-05T00:16:55;22.20;91.50
7307;DHT22;3694;48.732;9.248;2022-08-05T00:19:21;22.10;91.40
7307;DHT22;3694;48.732;9.248;2022-08-05T00:21:47;22.40;90.90
7307;DHT22;3694;48.732;9.248;2022-08-05T00:24:12;22.60;90.80
7307;DHT22;3694;48.732;9.248;2022-08-05T00:26:38;22.70;90.40
7307;DHT22;3694;48.732;9.248;2022-08-05T00:29:03;22.80;90.30
7307;DHT22;3694;48.732;9.248;2022-08-05T00:31:29;22.70;90.10
7307;DHT22;3694;48.732;9.248;2022-08-05T00:33:54;22.70;90.20
7307;DHT22;3694;48.732;9.248;2022-08-05T00:36:20;22.60;90.00
7307;DHT22;3694;48.732;9.248;2022-08-05T00:38:48;22.60;89.10
7307;DHT22;3694;48.732;9.248;2022-08-05T00:41:13;22.50;88.40
7307;DHT22;3694;48.732;9.248;2022-08-05T00:43:39;22.40;88.50
7307;DHT22;3694;48.732;9.248;2022-08-05T00:46:04;22.30;89.00
7307;DHT22;3694;48.732;9.248;2022-08-05T00:48:30;22.20;88.50
7307;DHT22;3694;48.732;9.248;2022-08-05T00:50:56;22.30;88.50
7307;DHT22;3694;48.732;9.248;2022-08-05T00:53:22;22.10;87.20
7307;DHT22;3694;48.732;9.248;2022-08-05T00:55:48;22.20;87.70
7307;DHT22;3694;48.732;9.248;2022-08-05T00:58:15;22.30;87.40
7307;DHT22;3694;48.732;9.248;2022-08-05T01:00:44;22.50;86.60
7307;DHT22;3694;48.732;9.248;2022-08-05T01:03:10;22.60;86.40
7307;DHT22;3694;48.732;9.248;2022-08-05T01:05:36;22.60;86.20
7307;DHT22;3694;48.732;9.248;2022-08-05T01:08:02;22.60;85.60
7307;DHT22;3694;48.732;9.248;2022-08-05T01:10:33;22.70;85.70
7307;DHT22;3694;48.732;9.248;2022-08-05T01:13:05;23.20;78.10
7307;DHT22;3694;48.732;9.248;2022-08-05T01:15:37;23.80;75.10
7307;DHT22;3694;48.732;9.248;2022-08-05T01:18:08;24.10;71.30
7307;DHT22;3694;48.732;9.248;2022-08-05T01:23:56;24.30;69.40
7307;DHT22;3694;48.732;9.248;2022-08-05T01:26:32;24.30;69.00
7307;DHT22;3694;48.732;9.248;2022-08-05T01:29:03;24.20;69.50
7307;DHT22;3694;48.732;9.248;2022-08-05T01:31:35;24.10;69.80
7307;DHT22;3694;48.732;9.248;2022-08-05T01:36:52;24.00;70.50
7307;DHT22;3694;48.732;9.248;2022-08-05T01:39:20;24.00;70.90
7307;DHT22;3694;48.732;9.248;2022-08-05T01:41:48;23.90;71.60
7307;DHT22;3694;48.732;9.248;2022-08-05T01:44:15;23.70;72.00
7307;DHT22;3694;48.732;9.248;2022-08-05T01:46:43;23.60;72.60
7307;DHT22;3694;48.732;9.248;2022-08-05T01:49:11;23.50;72.80
7307;DHT22;3694;48.732;9.248;2022-08-05T01:51:38;23.50;73.10
7307;DHT22;3694;48.732;9.248;2022-08-05T01:54:07;23.40;73.60
7307;DHT22;3694;48.732;9.248;2022-08-05T01:56:38;23.30;74.20
7307;DHT22;3694;48.732;9.248;2022-08-05T01:59:09;23.30;74.40
7307;DHT22;3694;48.732;9.248;2022-08-05T02:01:36;23.20;74.80
7307;DHT22;3694;48.732;9.248;2022-08-05T02:04:03;23.20;75.20
7307;DHT22;3694;48.732;9.248;2022-08-05T02:06:29;23.10;75.70
7307;DHT22;3694;48.732;9.248;2022-08-05T02:08:55;23.10;76.20
7307;DHT22;3694;48.732;9.248;2022-08-05T02:11:21;23.00;76.60
7307;DHT22;3694;48.732;9.248;2022-08-05T02:14:41;22.90;76.90
7307;DHT22;3694;48.732;9.248;2022-08-05T02:17:08;22.90;77.40
7307;DHT22;3694;48.732;9.248;2022-08-05T02:19:42;22.80;78.30
7307;DHT22;3694;48.732;9.248;2022-08-05T02:22:24;22.70;78.80
7307;DHT22;3694;48.732;9.248;2022-08-05T02:24:57;22.60;79.60
7307;DHT22;3694;48.732;9.248;2022-08-05T02:27:26;22.70;79.30
7307;DHT22;3694;48.732;9.248;2022-08-05T02:29:53;22.70;79.50
7307;DHT22;3694;48.732;9.248;2022-08-05T02:32:20;22.60;79.90
7307;DHT22;3694;48.732;9.248;2022-08-05T02:34:47;22.60;80.20
7307;DHT22;3694;48.732;9.248;2022-08-05T02:37:14;22.50;80.20
7307;DHT22;3694;48.732;9.248;2022-08-05T02:39:41;22.50;81.00
7307;DHT22;3694;48.732;9.248;2022-08-05T02:42:08;22.40;81.30
7307;DHT22;3694;48.732;9.248;2022-08-05T02:44:36;22.40;81.60
7307;DHT22;3694;48.732;9.248;2022-08-05T02:47:04;22.30;81.80
7307;DHT22;3694;48.732;9.248;2022-08-05T02:49:33;22.30;82.40
7307;DHT22;3694;48.732;9.248;2022-08-05T02:52:00;22.20;83.10
7307;DHT22;3694;48.732;9.248;2022-08-05T02:54:27;22.00;83.20
7307;DHT22;3694;48.732;9.248;2022-08-05T02:56:53;22.10;83.70
7307;DHT22;3694;48.732;9.248;2022-08-05T02:59:20;22.00;84.10
7307;DHT22;3694;48.732;9.248;2022-08-05T03:01:48;21.80;84.90
7307;DHT22;3694;48.732;9.248;2022-08-05T03:04:17;21.70;85.40
7307;DHT22;3694;48.732;9.248;2022-08-05T03:06:43;21.60;86.80
7307;DHT22;3694;48.732;9.248;2022-08-05T03:09:12;21.60;88.00
7307;DHT22;3694;48.732;9.248;2022-08-05T03:11:40;21.50;88.20
7307;DHT22;3694;48.732;9.248;2022-08-05T03:14:06;21.40;90.10
7307;DHT22;3694;48.732;9.248;2022-08-05T03:16:31;21.30;90.30
7307;DHT22;3694;48.732;9.248;2022-08-05T03:18:58;21.10;90.70
7307;DHT22;3694;48.732;9.248;2022-08-05T03:21:24;21.00;91.10
7307;DHT22;3694;48.732;9.248;2022-08-05T03:23:49;20.90;91.80
7307;DHT22;3694;48.732;9.248;2022-08-05T03:26:15;20.90;92.50
7307;DHT22;3694;48.732;9.248;2022-08-05T03:28:41;20.80;92.90
7307;DHT22;3694;48.732;9.248;2022-08-05T03:31:06;20.60;93.60
7307;DHT22;3694;48.732;9.248;2022-08-05T03:33:33;20.80;93.90
7307;DHT22;3694;48.732;9.248;2022-08-05T03:35:59;20.60;93.70
7307;DHT22;3694;48.732;9.248;2022-08-05T03:38:26;20.70;93.80
7307;DHT22;3694;48.732;9.248;2022-08-05T03:40:52;20.80;93.90
7307;DHT22;3694;48.732;9.248;2022-08-05T03:43:18;20.80;93.80
7307;DHT22;3694;48.732;9.248;2022-08-05T03:45:45;20.60;94.10
7307;DHT22;3694;48.732;9.248;2022-08-05T03:48:10;20.60;94.60
7307;DHT22;3694;48.732;9.248;2022-08-05T03:50:52;20.40;94.80
7307;DHT22;3694;48.732;9.248;2022-08-05T03:53:30;20.20;95.30
7307;DHT22;3694;48.732;9.248;2022-08-05T03:56:25;20.30;96.00
7307;DHT22;3694;48.732;9.248;2022-08-05T03:58:52;20.20;95.90
7307;DHT22;3694;48.732;9.248;2022-08-05T04:01:20;20.20;95.70
7307;DHT22;3694;48.732;9.248;2022-08-05T04:03:48;20.10;96.10
7307;DHT22;3694;48.732;9.248;2022-08-05T04:06:16;20.00;96.60
7307;DHT22;3694;48.732;9.248;2022-08-05T04:08:42;19.90;97.40
7307;DHT22;3694;48.732;9.248;2022-08-05T04:11:09;19.80;97.60
7307;DHT22;3694;48.732;9.248;2022-08-05T04:13:38;19.60;97.60
7307;DHT22;3694;48.732;9.248;2022-08-05T04:16:06;19.50;98.20
7307;DHT22;3694;48.732;9.248;2022-08-05T04:18:33;19.50;98.50
7307;DHT22;3694;48.732;9.248;2022-08-05T04:20:59;19.70;98.50
7307;DHT22;3694;48.732;9.248;2022-08-05T04:23:26;19.90;98.20
7307;DHT22;3694;48.732;9.248;2022-08-05T04:25:52;20.20;97.40
7307;DHT22;3694;48.732;9.248;2022-08-05T04:28:19;20.30;97.30
7307;DHT22;3694;48.732;9.248;2022-08-05T04:30:46;20.50;96.70
7307;DHT22;3694;48.732;9.248;2022-08-05T04:33:12;20.50;96.60
7307;DHT22;3694;48.732;9.248;2022-08-05T04:35:38;20.50;97.00
7307;DHT22;3694;48.732;9.248;2022-08-05T04:38:03;20.40;97.00
7307;DHT22;3694;48.732;9.248;2022-08-05T04:40:35;20.50;97.20
7307;DHT22;3694;48.732;9.248;2022-08-05T04:43:01;20.40;97.20
7307;DHT22;3694;48.732;9.248;2022-08-05T04:45:26;20.40;97.30
7307;DHT22;3694;48.732;9.248;2022-08-05T04:47:52;20.40;97.10
7307;DHT22;3694;48.732;9.248;2022-08-05T04:50:17;20.40;97.30
7307;DHT22;3694;48.732;9.248;2022-08-05T04:52:43;20.50;97.30
7307;DHT22;3694;48.732;9.248;2022-08-05T04:55:09;20.50;97.20
7307;DHT22;3694;48.732;9.248;2022-08-05T04:57:35;20.60;97.00
7307;DHT22;3694;48.732;9.248;2022-08-05T05:00:02;20.60;96.80
7307;DHT22;3694;48.732;9.248;2022-08-05T05:02:27;20.70;96.80
7307;DHT22;3694;48.732;9.248;2022-08-05T05:04:53;20.80;96.70
7307;DHT22;3694;48.732;9.248;2022-08-05T05:07:18;20.70;96.60
7307;DHT22;3694;48.732;9.248;2022-08-05T05:09:44;20.70;96.90
7307;DHT22;3694;48.732;9.248;2022-08-05T05:12:10;20.70;97.20
7307;DHT22;3694;48.732;9.248;2022-08-05T05:14:35;20.90;96.80
7307;DHT22;3694;48.732;9.248;2022-08-05T05:17:01;21.10;96.20
7307;DHT22;3694;48.732;9.248;2022-08-05T05:19:27;21.30;96.10
7307;DHT22;3694;48.732;9.248;2022-08-05T05:21:52;21.50;95.60
7307;DHT22;3694;48.732;9.248;2022-08-05T05:24:18;21.90;94.90
7307;DHT22;3694;48.732;9.248;2022-08-05T05:26:46;22.10;94.40
7307;DHT22;3694;48.732;9.248;2022-08-05T05:29:12;22.40;94.00
7307;DHT22;3694;48.732;9.248;2022-08-05T05:31:37;22.60;93.30
7307;DHT22;3694;48.732;9.248;2022-08-05T05:34:03;22.80;93.30
7307;DHT22;3694;48.732;9.248;2022-08-05T05:36:30;23.00;92.80
7307;DHT22;3694;48.732;9.248;2022-08-05T05:38:56;23.20;92.50
7307;DHT22;3694;48.732;9.248;2022-08-05T05:41:21;23.40;92.40
7307;DHT22;3694;48.732;9.248;2022-08-05T05:43:47;23.50;92.20
7307;DHT22;3694;48.732;9.248;2022-08-05T05:46:12;23.80;91.80
7307;DHT22;3694;48.732;9.248;2022-08-05T05:48:38;23.80;91.40
7307;DHT22;3694;48.732;9.248;2022-08-05T05:51:06;24.20;90.80
7307;DHT22;3694;48.732;9.248;2022-08-05T05:53:32;24.80;90.00
7307;DHT22;3694;48.732;9.248;2022-08-05T05:55:57;25.40;87.50
7307;DHT22;3694;48.732;9.248;2022-08-05T05:58:23;25.90;84.10
7307;DHT22;3694;48.732;9.248;2022-08-05T06:00:48;26.70;81.30
7307;DHT22;3694;48.732;9.248;2022-08-05T06:03:14;27.30;78.70
7307;DHT22;3694;48.732;9.248;2022-08-05T06:05:39;27.90;76.10
7307;DHT22;3694;48.732;9.248;2022-08-05T06:08:05;28.00;74.20
7307;DHT22;3694;48.732;9.248;2022-08-05T06:10:30;28.10;73.60
7307;DHT22;3694;48.732;9.248;2022-08-05T06:12:58;28.50;72.60
7307;DHT22;3694;48.732;9.248;2022-08-05T06:15:23;28.70;72.30
7307;DHT22;3694;48.732;9.248;2022-08-05T06:17:49;29.40;70.20
7307;DHT22;3694;48.732;9.248;2022-08-05T06:20:15;29.70;68.70
7307;DHT22;3694;48.732;9.248;2022-08-05T06:22:40;29.70;67.70
7307;DHT22;3694;48.732;9.248;2022-08-05T06:25:07;30.30;66.90
7307;DHT22;3694;48.732;9.248;2022-08-05T06:27:33;30.40;64.80
7307;DHT22;3694;48.732;9.248;2022-08-05T06:29:59;30.20;63.50
7307;DHT22;3694;48.732;9.248;2022-08-05T06:32:24;30.10;63.70
7307;DHT22;3694;48.732;9.248;2022-08-05T06:34:50;30.50;63.40
7307;DHT22;3694;48.732;9.248;2022-08-05T06:37:15;30.50;62.00
7307;DHT22;3694;48.732;9.248;2022-08-05T06:39:41;30.60;63.10
7307;DHT22;3694;48.732;9.248;2022-08-05T06:42:07;30.60;62.40
7307;DHT22;3694;48.732;9.248;2022-08-05T06:44:33;31.00;62.20
7307;DHT22;3694;48.732;9.248;2022-08-05T06:46:59;31.60;62.20
7307;DHT22;3694;48.732;9.248;2022-08-05T06:49:25;31.90;59.60
7307;DHT22;3694;48.732;9.248;2022-08-05T06:51:51;32.10;58.90
7307;DHT22;3694;48.732;9.248;2022-08-05T06:54:16;32.50;59.40
7307;DHT22;3694;48.732;9.248;2022-08-05T06:56:42;33.00;58.40
7307;DHT22;3694;48.732;9.248;2022-08-05T06:59:08;33.50;56.80
7307;DHT22;3694;48.732;9.248;2022-08-05T07:01:34;33.70;55.50
7307;DHT22;3694;48.732;9.248;2022-08-05T07:04:00;33.80;55.60
7307;DHT22;3694;48.732;9.248;2022-08-05T07:06:26;34.10;55.70
7307;DHT22;3694;48.732;9.248;2022-08-05T07:08:51;33.90;54.20
7307;DHT22;3694;48.732;9.248;2022-08-05T07:11:17;33.90;55.20
7307;DHT22;3694;48.732;9.248;2022-08-05T07:13:43;34.00;55.20
7307;DHT22;3694;48.732;9.248;2022-08-05T07:16:27;34.20;54.60
7307;DHT22;3694;48.732;9.248;2022-08-05T07:19:12;34.10;52.60
7307;DHT22;3694;48.732;9.248;2022-08-05T07:21:37;34.00;53.50
7307;DHT22;3694;48.732;9.248;2022-08-05T07:24:03;33.30;52.60
7307;DHT22;3694;48.732;9.248;2022-08-05T07:26:29;32.80;52.70
7307;DHT22;3694;48.732;9.248;2022-08-05T07:28:54;32.80;53.20
7307;DHT22;3694;48.732;9.248;2022-08-05T07:31:20;32.80;53.30
7307;DHT22;3694;48.732;9.248;2022-08-05T07:33:46;32.80;53.60
7307;DHT22;3694;48.732;9.248;2022-08-05T07:36:11;32.90;53.80
7307;DHT22;3694;48.732;9.248;2022-08-05T07:38:38;32.60;53.10
7307;DHT22;3694;48.732;9.248;2022-08-05T07:41:06;32.90;53.40
7307;DHT22;3694;48.732;9.248;2022-08-05T07:43:32;33.00;54.00
7307;DHT22;3694;48.732;9.248;2022-08-05T07:45:58;33.10;53.50
7307;DHT22;3694;48.732;9.248;2022-08-05T07:48:24;33.30;54.00
7307;DHT22;3694;48.732;9.248;2022-08-05T07:50:50;33.00;52.70
7307;DHT22;3694;48.732;9.248;2022-08-05T07:53:15;32.40;53.70
7307;DHT22;3694;48.732;9.248;2022-08-05T07:55:41;32.20;54.70
7307;DHT22;3694;48.732;9.248;2022-08-05T07:58:06;31.90;53.00
7307;DHT22;3694;48.732;9.248;2022-08-05T08:00:32;32.30;53.00
7307;DHT22;3694;48.732;9.248;2022-08-05T08:02:57;32.80;52.20
7307;DHT22;3694;48.732;9.248;2022-08-05T08:05:23;32.70;51.60
7307;DHT22;3694;48.732;9.248;2022-08-05T08:07:51;33.20;53.10
7307;DHT22;3694;48.732;9.248;2022-08-05T08:10:16;32.90;52.60
7307;DHT22;3694;48.732;9.248;2022-08-05T08:12:42;32.80;52.60
7307;DHT22;3694;48.732;9.248;2022-08-05T08:15:09;32.00;53.70
7307;DHT22;3694;48.732;9.248;2022-08-05T08:17:35;32.10;52.90
7307;DHT22;3694;48.732;9.248;2022-08-05T08:20:00;32.80;51.70
7307;DHT22;3694;48.732;9.248;2022-08-05T08:22:29;33.20;51.20
7307;DHT22;3694;48.732;9.248;2022-08-05T08:24:54;32.90;51.50
7307;DHT22;3694;48.732;9.248;2022-08-05T08:27:20;32.60;51.80
7307;DHT22;3694;48.732;9.248;2022-08-05T08:29:47;32.60;51.00
7307;DHT22;3694;48.732;9.248;2022-08-05T08:32:13;32.80;50.90
7307;DHT22;3694;48.732;9.248;2022-08-05T08:34:38;32.80;50.70
7307;DHT22;3694;48.732;9.248;2022-08-05T08:37:04;32.90;49.40
7307;DHT22;3694;48.732;9.248;2022-08-05T08:39:29;32.90;49.90
7307;DHT22;3694;48.732;9.248;2022-08-05T08:41:55;32.90;49.30
7307;DHT22;3694;48.732;9.248;2022-08-05T08:44:23;33.10;48.60
7307;DHT22;3694;48.732;9.248;2022-08-05T08:46:50;33.60;48.10
7307;DHT22;3694;48.732;9.248;2022-08-05T08:49:18;33.70;49.20
7307;DHT22;3694;48.732;9.248;2022-08-05T08:51:47;33.70;48.50
7307;DHT22;3694;48.732;9.248;2022-08-05T08:54:13;33.40;46.90
7307;DHT22;3694;48.732;9.248;2022-08-05T08:56:40;33.60;46.40
7307;DHT22;3694;48.732;9.248;2022-08-05T08:59:06;33.80;47.70
7307;DHT22;3694;48.732;9.248;2022-08-05T09:01:32;33.90;47.50
7307;DHT22;3694;48.732;9.248;2022-08-05T09:03:58;33.80;47.70
7307;DHT22;3694;48.732;9.248;2022-08-05T09:06:25;34.20;46.00
7307;DHT22;3694;48.732;9.248;2022-08-05T09:08:52;34.10;46.90
7307;DHT22;3694;48.732;9.248;2022-08-05T09:11:18;34.10;47.90
7307;DHT22;3694;48.732;9.248;2022-08-05T09:13:44;33.70;48.30
7307;DHT22;3694;48.732;9.248;2022-08-05T09:16:11;33.80;47.90
7307;DHT22;3694;48.732;9.248;2022-08-05T09:18:37;33.80;48.60
7307;DHT22;3694;48.732;9.248;2022-08-05T09:21:04;34.20;48.60
7307;DHT22;3694;48.732;9.248;2022-08-05T09:23:29;34.00;45.90
7307;DHT22;3694;48.732;9.248;2022-08-05T09:26:06;33.80;45.80
7307;DHT22;3694;48.732;9.248;2022-08-05T09:28:33;33.20;46.70
7307;DHT22;3694;48.732;9.248;2022-08-05T09:33:29;32.90;48.20
7307;DHT22;3694;48.732;9.248;2022-08-05T09:36:04;33.30;47.40
7307;DHT22;3694;48.732;9.248;2022-08-05T09:38:30;33.40;50.20
7307;DHT22;3694;48.732;9.248;2022-08-05T09:41:07;33.70;46.60
7307;DHT22;3694;48.732;9.248;2022-08-05T09:43:38;34.00;46.10
7307;DHT22;3694;48.732;9.248;2022-08-05T09:46:05;33.80;46.50
7307;DHT22;3694;48.732;9.248;2022-08-05T09:48:36;33.80;47.60
7307;DHT22;3694;48.732;9.248;2022-08-05T09:51:05;34.00;46.00
7307;DHT22;3694;48.732;9.248;2022-08-05T09:53:47;33.80;44.80
7307;DHT22;3694;48.732;9.248;2022-08-05T09:56:26;33.50;45.80
7307;DHT22;3694;48.732;9.248;2022-08-05T09:59:07;33.30;46.60
7307;DHT22;3694;48.732;9.248;2022-08-05T10:01:35;33.00;47.10
7307;DHT22;3694;48.732;9.248;2022-08-05T10:04:05;33.00;46.10
7307;DHT22;3694;48.732;9.248;2022-08-05T10:06:31;33.00;46.60
7307;DHT22;3694;48.732;9.248;2022-08-05T10:09:15;33.10;45.80
7307;DHT22;3694;48.732;9.248;2022-08-05T10:11:42;33.50;46.40
7307;DHT22;3694;48.732;9.248;2022-08-05T10:14:26;33.60;46.70
7307;DHT22;3694;48.732;9.248;2022-08-05T10:16:53;33.60;47.60
7307;DHT22;3694;48.732;9.248;2022-08-05T10:19:25;33.60;45.00
7307;DHT22;3694;48.732;9.248;2022-08-05T10:21:51;33.30;47.10
7307;DHT22;3694;48.732;9.248;2022-08-05T10:24:18;33.80;47.90
7307;DHT22;3694;48.732;9.248;2022-08-05T10:26:45;34.00;45.80
7307;DHT22;3694;48.732;9.248;2022-08-05T10:29:11;34.10;45.90
7307;DHT22;3694;48.732;9.248;2022-08-05T10:31:37;34.00;46.10
7307;DHT22;3694;48.732;9.248;2022-08-05T10:34:07;33.90;47.30
7307;DHT22;3694;48.732;9.248;2022-08-05T10:36:38;33.80;48.00
7307;DHT22;3694;48.732;9.248;2022-08-05T10:39:19;33.80;47.70
7307;DHT22;3694;48.732;9.248;2022-08-05T10:42:02;34.10;45.70
7307;DHT22;3694;48.732;9.248;2022-08-05T10:44:32;34.60;46.60
7307;DHT22;3694;48.732;9.248;2022-08-05T10:47:11;34.70;46.00
7307;DHT22;3694;48.732;9.248;2022-08-05T10:50:00;34.60;45.60
7307;DHT22;3694;48.732;9.248;2022-08-05T10:52:44;34.80;45.30
7307;DHT22;3694;48.732;9.248;2022-08-05T10:55:17;34.90;45.70
7307;DHT22;3694;48.732;9.248;2022-08-05T10:57:44;34.60;45.00
7307;DHT22;3694;48.732;9.248;2022-08-05T11:02:38;34.90;45.50
7307;DHT22;3694;48.732;9.248;2022-08-05T11:05:23;35.10;45.50
7307;DHT22;3694;48.732;9.248;2022-08-05T11:08:00;35.30;47.40
7307;DHT22;3694;48.732;9.248;2022-08-05T11:10:30;35.50;45.30
7307;DHT22;3694;48.732;9.248;2022-08-05T11:12:58;35.30;45.30
7307;DHT22;3694;48.732;9.248;2022-08-05T11:15:28;35.00;45.00
7307;DHT22;3694;48.732;9.248;2022-08-05T11:18:22;34.60;45.00
7307;DHT22;3694;48.732;9.248;2022-08-05T11:24:10;34.30;46.10
7307;DHT22;3694;48.732;9.248;2022-08-05T11:26:36;34.20;48.40
7307;DHT22;3694;48.732;9.248;2022-08-05T11:29:04;34.60;48.00
7307;DHT22;3694;48.732;9.248;2022-08-05T11:31:30;34.90;46.20
7307;DHT22;3694;48.732;9.248;2022-08-05T11:33:59;34.70;47.00
7307;DHT22;3694;48.732;9.248;2022-08-05T11:36:40;34.50;46.10
7307;DHT22;3694;48.732;9.248;2022-08-05T11:39:07;34.20;45.00
7307;DHT22;3694;48.732;9.248;2022-08-05T11:41:34;34.10;46.50
7307;DHT22;3694;48.732;9.248;2022-08-05T11:44:11;34.20;46.70
7307;DHT22;3694;48.732;9.248;2022-08-05T11:46:41;34.60;46.50
7307;DHT22;3694;48.732;9.248;2022-08-05T11:49:13;34.90;45.20
7307;DHT22;3694;48.732;9.248;2022-08-05T11:51:43;34.70;45.10
7307;DHT22;3694;48.732;9.248;2022-08-05T11:54:11;34.80;47.20
7307;DHT22;3694;48.732;9.248;2022-08-05T11:56:50;35.20;45.60
7307;DHT22;3694;48.732;9.248;2022-08-05T11:59:19;35.40;46.20
7307;DHT22;3694;48.732;9.248;2022-08-05T12:02:02;35.50;45.90
7307;DHT22;3694;48.732;9.248;2022-08-05T12:04:42;35.70;46.00
7307;DHT22;3694;48.732;9.248;2022-08-05T12:07:11;35.30;46.40
7307;DHT22;3694;48.732;9.248;2022-08-05T12:09:48;35.00;44.90
7307;DHT22;3694;48.732;9.248;2022-08-05T12:12:25;35.00;44.90
7307;DHT22;3694;48.732;9.248;2022-08-05T12:14:54;35.20;46.20
7307;DHT22;3694;48.732;9.248;2022-08-05T12:17:20;35.00;45.80
7307;DHT22;3694;48.732;9.248;2022-08-05T12:19:54;35.10;45.60
7307;DHT22;3694;48.732;9.248;2022-08-05T12:22:24;35.00;44.60
7307;DHT22;3694;48.732;9.248;2022-08-05T12:24:51;35.30;45.70
7307;DHT22;3694;48.732;9.248;2022-08-05T12:27:28;35.30;44.90
7307;DHT22;3694;48.732;9.248;2022-08-05T12:30:09;35.50;44.60
7307;DHT22;3694;48.732;9.248;2022-08-05T12:32:43;35.60;44.60
7307;DHT22;3694;48.732;9.248;2022-08-05T12:35:10;35.30;45.40
7307;DHT22;3694;48.732;9.248;2022-08-05T12:37:36;35.30;44.60
7307;DHT22;3694;48.732;9.248;2022-08-05T12:40:02;35.20;44.90
7307;DHT22;3694;48.732;9.248;2022-08-05T12:42:28;35.20;44.80
7307;DHT22;3694;48.732;9.248;2022-08-05T12:45:08;35.50;45.50
7307;DHT22;3694;48.732;9.248;2022-08-05T12:47:34;35.90;45.00
7307;DHT22;3694;48.732;9.248;2022-08-05T12:50:10;35.80;44.40
7307;DHT22;3694;48.732;9.248;2022-08-05T12:52:36;35.90;45.40
7307;DHT22;3694;48.732;9.248;2022-08-05T12:55:21;36.00;43.50
7307;DHT22;3694;48.732;9.248;2022-08-05T12:57:47;35.90;44.40
7307;DHT22;3694;48.732;9.248;2022-08-05T13:00:21;35.70;45.70
7307;DHT22;3694;48.732;9.248;2022-08-05T13:02:46;35.70;43.90
7307;DHT22;3694;48.732;9.248;2022-08-05T13:05:12;35.60;43.50
7307;DHT22;3694;48.732;9.248;2022-08-05T13:07:39;35.80;45.50
7307;DHT22;3694;48.732;9.248;2022-08-05T13:10:10;36.00;45.00
7307;DHT22;3694;48.732;9.248;2022-08-05T13:12:40;36.30;43.10
7307;DHT22;3694;48.732;9.248;2022-08-05T13:15:09;36.50;43.30
7307;DHT22;3694;48.732;9.248;2022-08-05T13:17:34;36.40;42.20
7307;DHT22;3694;48.732;9.248;2022-08-05T13:22:38;36.20;43.20
7307;DHT22;3694;48.732;9.248;2022-08-05T13:25:07;36.20;42.60
7307;DHT22;3694;48.732;9.248;2022-08-05T13:27:37;36.30;42.50
7307;DHT22;3694;48.732;9.248;2022-08-05T13:30:08;36.30;44.00
7307;DHT22;3694;48.732;9.248;2022-08-05T13:32:34;36.50;44.80
7307;DHT22;3694;48.732;9.248;2022-08-05T13:35:00;36.30;43.40
7307;DHT22;3694;48.732;9.248;2022-08-05T13:37:25;35.80;42.50
7307;DHT22;3694;48.732;9.248;2022-08-05T13:39:51;35.20;43.60
7307;DHT22;3694;48.732;9.248;2022-08-05T13:42:21;34.90;44.00
7307;DHT22;3694;48.732;9.248;2022-08-05T13:44:50;34.40;42.30
7307;DHT22;3694;48.732;9.248;2022-08-05T13:47:16;34.40;43.10
7307;DHT22;3694;48.732;9.248;2022-08-05T13:49:42;33.80;43.10
7307;DHT22;3694;48.732;9.248;2022-08-05T13:52:11;33.70;44.20
7307;DHT22;3694;48.732;9.248;2022-08-05T13:54:37;33.30;45.60
7307;DHT22;3694;48.732;9.248;2022-08-05T13:57:03;32.90;45.70
7307;DHT22;3694;48.732;9.248;2022-08-05T13:59:29;32.30;46.00
7307;DHT22;3694;48.732;9.248;2022-08-05T14:01:56;31.70;46.30
7307;DHT22;3694;48.732;9.248;2022-08-05T14:04:21;31.20;47.70
7307;DHT22;3694;48.732;9.248;2022-08-05T14:07:05;30.90;46.50
7307;DHT22;3694;48.732;9.248;2022-08-05T14:09:33;30.50;46.50
7307;DHT22;3694;48.732;9.248;2022-08-05T14:11:58;30.50;48.40
7307;DHT22;3694;48.732;9.248;2022-08-05T14:14:24;30.20;50.00
7307;DHT22;3694;48.732;9.248;2022-08-05T14:16:49;30.10;48.80
7307;DHT22;3694;48.732;9.248;2022-08-05T14:19:15;30.00;49.40
7307;DHT22;3694;48.732;9.248;2022-08-05T14:21:41;30.00;48.60
7307;DHT22;3694;48.732;9.248;2022-08-05T14:24:07;30.10;50.40
7307;DHT22;3694;48.732;9.248;2022-08-05T14:26:35;30.10;49.90
7307;DHT22;3694;48.732;9.248;2022-08-05T14:29:01;30.10;49.70
7307;DHT22;3694;48.732;9.248;2022-08-05T14:31:26;30.00;50.00
7307;DHT22;3694;48.732;9.248;2022-08-05T14:33:52;29.90;49.90
7307;DHT22;3694;48.732;9.248;2022-08-05T14:36:18;29.80;50.30
7307;DHT22;3694;48.732;9.248;2022-08-05T14:38:43;29.70;50.10
7307;DHT22;3694;48.732;9.248;2022-08-05T14:41:09;29.50;50.70
7307;DHT22;3694;48.732;9.248;2022-08-05T14:43:36;29.40;50.30
7307;DHT22;3694;48.732;9.248;2022-08-05T14:46:01;29.30;50.60
7307;DHT22;3694;48.732;9.248;2022-08-05T14:48:27;29.10;49.90
7307;DHT22;3694;48.732;9.248;2022-08-05T14:50:52;29.00;50.10
7307;DHT22;3694;48.732;9.248;2022-08-05T14:53:18;28.70;50.10
7307;DHT22;3694;48.732;9.248;2022-08-05T14:55:43;28.50;50.50
7307;DHT22;3694;48.732;9.248;2022-08-05T14:58:09;28.20;51.00
7307;DHT22;3694;48.732;9.248;2022-08-05T15:00:35;28.00;50.40
7307;DHT22;3694;48.732;9.248;2022-08-05T15:03:01;28.00;51.40
7307;DHT22;3694;48.732;9.248;2022-08-05T15:05:26;28.00;52.50
7307;DHT22;3694;48.732;9.248;2022-08-05T15:07:52;28.00;51.40
7307;DHT22;3694;48.732;9.248;2022-08-05T15:10:18;28.00;51.60
7307;DHT22;3694;48.732;9.248;2022-08-05T15:12:43;28.00;52.00
7307;DHT22;3694;48.732;9.248;2022-08-05T15:15:09;27.90;51.90
7307;DHT22;3694;48.732;9.248;2022-08-05T15:17:35;28.00;52.10
7307;DHT22;3694;48.732;9.248;2022-08-05T15:20:01;28.40;52.70
7307;DHT22;3694;48.732;9.248;2022-08-05T15:22:27;28.80;53.30
7307;DHT22;3694;48.732;9.248;2022-08-05T15:24:52;29.30;52.90
7307;DHT22;3694;48.732;9.248;2022-08-05T15:27:17;29.60;53.50
7307;DHT22;3694;48.732;9.248;2022-08-05T15:29:43;29.60;53.70
7307;DHT22;3694;48.732;9.248;2022-08-05T15:32:08;29.30;54.70
7307;DHT22;3694;48.732;9.248;2022-08-05T15:34:34;28.70;57.50
7307;DHT22;3694;48.732;9.248;2022-08-05T15:37:00;28.40;58.90
7307;DHT22;3694;48.732;9.248;2022-08-05T15:39:26;28.00;58.80
7307;DHT22;3694;48.732;9.248;2022-08-05T15:41:51;27.60;59.50
7307;DHT22;3694;48.732;9.248;2022-08-05T15:44:17;27.60;60.70
7307;DHT22;3694;48.732;9.248;2022-08-05T15:46:42;27.50;60.40
7307;DHT22;3694;48.732;9.248;2022-08-05T15:49:08;27.30;60.80
7307;DHT22;3694;48.732;9.248;2022-08-05T15:51:33;27.30;61.10
7307;DHT22;3694;48.732;9.248;2022-08-05T15:53:59;27.30;62.00
7307;DHT22;3694;48.732;9.248;2022-08-05T15:56:24;27.30;60.60
7307;DHT22;3694;48.732;9.248;2022-08-05T15:58:50;27.10;61.00
7307;DHT22;3694;48.732;9.248;2022-08-05T16:01:16;27.30;62.00
7307;DHT22;3694;48.732;9.248;2022-08-05T16:03:43;27.20;62.00
7307;DHT22;3694;48.732;9.248;2022-08-05T16:06:09;27.20;61.60
7307;DHT22;3694;48.732;9.248;2022-08-05T16:08:35;27.20;61.40
7307;DHT22;3694;48.732;9.248;2022-08-05T16:11:00;27.00;61.30
7307;DHT22;3694;48.732;9.248;2022-08-05T16:13:26;27.00;61.00
7307;DHT22;3694;48.732;9.248;2022-08-05T16:15:52;26.80;61.40
7307;DHT22;3694;48.732;9.248;2022-08-05T16:18:18;26.80;60.90
7307;DHT22;3694;48.732;9.248;2022-08-05T16:20:43;26.60;60.90
7307;DHT22;3694;48.732;9.248;2022-08-05T16:23:09;26.50;61.30
7307;DHT22;3694;48.732;9.248;2022-08-05T16:25:35;26.50;61.60